createdAt,value
2022-11-26T00:01:00.764Z,7.40
2022-11-26T00:03:29.213Z,7.40
2022-11-26T00:05:59.380Z,7.30
2022-11-26T00:08:34.287Z,7.40
2022-11-26T00:11:04.155Z,7.40
2022-11-26T00:13:33.192Z,7.40
2022-11-26T00:16:01.544Z,7.40
2022-11-26T00:18:29.901Z,7.40
2022-11-26T00:21:01.957Z,7.30
2022-11-26T00:23:30.842Z,7.30
2022-11-26T00:26:02.823Z,7.30
2022-11-26T00:28:35.302Z,7.30
2022-11-26T00:31:07.902Z,7.30
2022-11-26T00:33:36.255Z,7.30
2022-11-26T00:36:16.601Z,7.20
2022-11-26T00:38:45.639Z,7.30
2022-11-26T00:41:19.339Z,7.20
2022-11-26T00:43:49.516Z,7.30
2022-11-26T00:46:20.647Z,7.30
2022-11-26T00:48:49.574Z,7.20
2022-11-26T00:51:24.141Z,7.30
2022-11-26T00:53:57.476Z,7.30
2022-11-26T00:56:26.058Z,7.40
2022-11-26T00:58:55.872Z,7.40
2022-11-26T01:01:28.711Z,7.40
2022-11-26T01:03:59.466Z,7.50
2022-11-26T01:06:32.935Z,7.40
2022-11-26T01:09:02.066Z,7.50
2022-11-26T01:11:31.939Z,7.50
2022-11-26T01:14:02.028Z,7.40
2022-11-26T01:16:32.907Z,7.40
2022-11-26T01:19:03.037Z,7.40
2022-11-26T01:21:33.377Z,7.40
2022-11-26T01:24:01.880Z,7.30
2022-11-26T01:26:36.144Z,7.30
2022-11-26T01:29:06.015Z,7.30
2022-11-26T01:31:35.150Z,7.20
2022-11-26T01:34:03.630Z,7.20
2022-11-26T01:36:36.063Z,7.30
2022-11-26T01:39:08.541Z,7.20
2022-11-26T01:41:46.844Z,7.30
2022-11-26T01:44:22.677Z,7.10
2022-11-26T01:46:52.932Z,7.10
2022-11-26T01:49:24.688Z,7.00
2022-11-26T01:52:04.552Z,7.00
2022-11-26T01:54:37.911Z,7.10
2022-11-26T01:57:14.670Z,7.00
2022-11-26T01:59:50.938Z,7.00
2022-11-26T02:02:20.843Z,7.00
2022-11-26T02:05:08.726Z,6.90
2022-11-26T02:07:37.693Z,6.90
2022-11-26T02:10:07.738Z,6.90
2022-11-26T02:12:36.919Z,6.80
2022-11-26T02:15:08.547Z,6.70
2022-11-26T02:17:42.769Z,6.70
2022-11-26T02:20:46.430Z,6.60
2022-11-26T02:23:49.955Z,6.60
2022-11-26T02:27:01.477Z,6.60
2022-11-26T02:30:03.373Z,6.50
2022-11-26T02:32:44.022Z,6.40
2022-11-26T02:35:23.694Z,6.30
2022-11-26T02:37:57.715Z,6.30
2022-11-26T02:40:28.106Z,6.30
2022-11-26T02:42:56.928Z,6.20
2022-11-26T02:45:32.282Z,6.20
2022-11-26T02:48:05.945Z,6.20
2022-11-26T02:50:39.583Z,6.20
2022-11-26T02:53:10.781Z,6.20
2022-11-26T02:55:46.074Z,6.20
2022-11-26T02:58:15.672Z,6.20
2022-11-26T03:00:49.503Z,6.20
2022-11-26T03:03:26.140Z,6.20
2022-11-26T03:05:59.276Z,6.10
2022-11-26T03:08:29.875Z,6.10
2022-11-26T03:10:58.197Z,6.10
2022-11-26T03:13:26.934Z,6.10
2022-11-26T03:15:56.833Z,6.10
2022-11-26T03:18:25.520Z,6.10
2022-11-26T03:20:54.152Z,6.00
2022-11-26T03:23:23.004Z,6.10
2022-11-26T03:25:51.492Z,6.10
2022-11-26T03:28:19.854Z,6.10
2022-11-26T03:30:51.330Z,6.10
2022-11-26T03:33:21.424Z,6.10
2022-11-26T03:35:50.383Z,6.10
2022-11-26T03:38:19.135Z,6.10
2022-11-26T03:40:56.128Z,6.20
2022-11-26T03:43:24.503Z,6.20
2022-11-26T03:45:53.792Z,6.20
2022-11-26T03:48:23.513Z,6.20
2022-11-26T03:50:51.959Z,6.20
2022-11-26T03:53:20.312Z,6.20
2022-11-26T03:55:49.443Z,6.20
2022-11-26T03:58:17.946Z,6.30
2022-11-26T04:00:46.326Z,6.30
2022-11-26T04:03:15.038Z,6.30
2022-11-26T04:05:44.872Z,6.30
2022-11-26T04:08:13.651Z,6.30
2022-11-26T04:10:42.225Z,6.30
2022-11-26T04:13:10.787Z,6.30
2022-11-26T04:15:39.136Z,6.30
2022-11-26T04:18:07.808Z,6.30
2022-11-26T04:20:36.442Z,6.30
2022-11-26T04:23:06.268Z,6.40
2022-11-26T04:25:34.662Z,6.30
2022-11-26T04:28:03.109Z,6.40
2022-11-26T04:30:31.547Z,6.30
2022-11-26T04:32:59.925Z,6.30
2022-11-26T04:35:28.393Z,6.20
2022-11-26T04:37:56.768Z,6.20
2022-11-26T04:40:26.654Z,6.30
2022-11-26T04:42:55.250Z,6.30
2022-11-26T04:45:23.751Z,6.20
2022-11-26T04:47:52.250Z,6.20
2022-11-26T04:50:21.440Z,6.10
2022-11-26T04:52:50.770Z,6.20
2022-11-26T04:55:19.989Z,6.10
2022-11-26T04:57:50.828Z,6.10
2022-11-26T05:00:20.900Z,6.10
2022-11-26T05:02:49.351Z,6.10
2022-11-26T05:05:17.904Z,6.10
2022-11-26T05:07:46.502Z,6.10
2022-11-26T05:10:15.007Z,6.00
2022-11-26T05:12:43.321Z,6.10
2022-11-26T05:15:13.215Z,6.00
2022-11-26T05:17:41.598Z,6.10
2022-11-26T05:20:11.670Z,6.10
2022-11-26T05:22:39.966Z,6.10
2022-11-26T05:25:09.137Z,6.10
2022-11-26T05:27:37.576Z,6.10
2022-11-26T05:30:07.844Z,6.20
2022-11-26T05:32:37.450Z,6.10
2022-11-26T05:35:06.727Z,6.10
2022-11-26T05:37:35.073Z,6.10
2022-11-26T05:40:03.552Z,6.00
2022-11-26T05:42:31.843Z,6.10
2022-11-26T05:45:00.121Z,6.10
2022-11-26T05:47:28.506Z,6.00
2022-11-26T05:49:58.460Z,6.00
2022-11-26T05:52:27.183Z,6.00
2022-11-26T05:54:55.477Z,6.00
2022-11-26T05:57:23.805Z,6.00
2022-11-26T05:59:52.267Z,5.90
2022-11-26T06:02:20.689Z,5.90
2022-11-26T06:04:49.116Z,5.90
2022-11-26T06:07:18.890Z,6.00
2022-11-26T06:09:47.204Z,6.00
2022-11-26T06:12:15.529Z,6.00
2022-11-26T06:14:43.982Z,6.10
2022-11-26T06:17:12.328Z,6.10
2022-11-26T06:19:40.981Z,6.10
2022-11-26T06:22:09.423Z,6.00
2022-11-26T06:24:39.629Z,6.10
2022-11-26T06:27:08.403Z,6.10
2022-11-26T06:29:36.974Z,6.10
2022-11-26T06:32:05.925Z,6.10
2022-11-26T06:34:34.372Z,6.10
2022-11-26T06:37:02.706Z,6.10
2022-11-26T06:39:31.173Z,6.10
2022-11-26T06:42:00.772Z,6.10
2022-11-26T06:44:29.030Z,6.10
2022-11-26T06:46:57.278Z,6.10
2022-11-26T06:49:25.612Z,6.10
2022-11-26T06:51:54.735Z,6.20
2022-11-26T06:54:23.375Z,6.10
2022-11-26T06:56:51.640Z,6.10
2022-11-26T06:59:22.233Z,6.10
2022-11-26T07:01:50.631Z,6.10
2022-11-26T07:04:18.947Z,6.10
2022-11-26T07:06:47.470Z,6.10
2022-11-26T07:09:15.808Z,6.00
2022-11-26T07:11:44.240Z,5.90
2022-11-26T07:14:12.490Z,6.00
2022-11-26T07:16:42.133Z,6.00
2022-11-26T07:19:15.330Z,6.00
2022-11-26T07:21:43.709Z,6.00
2022-11-26T07:24:12.040Z,6.00
2022-11-26T07:26:40.309Z,6.00
2022-11-26T07:29:08.732Z,6.00
2022-11-26T07:31:37.106Z,6.00
2022-11-26T07:34:06.971Z,5.90
2022-11-26T07:36:35.407Z,5.90
2022-11-26T07:39:04.438Z,5.90
2022-11-26T07:41:32.799Z,5.90
2022-11-26T07:44:01.015Z,5.90
2022-11-26T07:46:29.449Z,6.00
2022-11-26T07:48:58.470Z,6.00
2022-11-26T07:51:30.947Z,6.00
2022-11-26T07:54:04.211Z,5.90
2022-11-26T07:56:32.727Z,5.90
2022-11-26T07:59:01.633Z,6.00
2022-11-26T08:01:32.140Z,6.00
2022-11-26T08:04:01.779Z,6.00
2022-11-26T08:06:31.689Z,6.10
2022-11-26T08:09:02.206Z,6.10
2022-11-26T08:11:33.286Z,6.20
2022-11-26T08:14:03.761Z,6.20
2022-11-26T08:16:32.778Z,6.20
2022-11-26T08:19:04.785Z,6.20
2022-11-26T08:21:35.523Z,6.20
2022-11-26T08:24:04.902Z,6.20
2022-11-26T08:26:38.438Z,6.10
2022-11-26T08:29:11.160Z,6.10
2022-11-26T08:31:45.125Z,6.10
2022-11-26T08:34:16.242Z,6.20
2022-11-26T08:36:47.270Z,6.20
2022-11-26T08:39:17.217Z,6.30
2022-11-26T08:41:51.644Z,6.30
2022-11-26T08:44:21.038Z,6.30
2022-11-26T08:46:50.230Z,6.30
2022-11-26T08:49:18.819Z,6.30
2022-11-26T08:51:48.531Z,6.40
2022-11-26T08:54:16.849Z,6.40
2022-11-26T08:56:45.103Z,6.50
2022-11-26T08:59:13.383Z,6.50
2022-11-26T09:01:41.997Z,6.50
2022-11-26T09:04:10.281Z,6.50
2022-11-26T09:06:40.748Z,6.60
2022-11-26T09:09:13.704Z,6.60
2022-11-26T09:11:46.076Z,6.70
2022-11-26T09:14:16.007Z,6.70
2022-11-26T09:16:44.749Z,6.70
2022-11-26T09:19:15.206Z,6.80
2022-11-26T09:21:44.167Z,6.80
2022-11-26T09:24:14.196Z,6.80
2022-11-26T09:26:42.856Z,6.80
2022-11-26T09:29:15.197Z,6.80
2022-11-26T09:32:07.373Z,6.80
2022-11-26T09:34:32.920Z,6.80
2022-11-26T09:37:01.218Z,6.70
2022-11-26T09:39:30.943Z,6.70
2022-11-26T09:42:07.519Z,6.80
2022-11-26T09:45:04.072Z,6.80
2022-11-26T09:47:41.409Z,6.80
2022-11-26T09:50:26.610Z,6.90
2022-11-26T09:53:01.253Z,6.90
2022-11-26T09:55:34.444Z,6.90
2022-11-26T09:58:13.299Z,7.10
2022-11-26T10:00:44.905Z,7.00
2022-11-26T10:03:17.071Z,7.00
2022-11-26T10:05:53.436Z,7.00
2022-11-26T10:09:03.977Z,7.00
2022-11-26T10:11:45.538Z,7.10
2022-11-26T10:14:40.652Z,7.00
2022-11-26T10:17:26.028Z,7.00
2022-11-26T10:20:25.188Z,7.00
2022-11-26T10:23:01.761Z,6.90
2022-11-26T10:25:37.476Z,6.90
2022-11-26T10:28:21.562Z,6.90
2022-11-26T10:30:58.708Z,6.90
2022-11-26T10:33:33.332Z,7.00
2022-11-26T10:36:01.867Z,7.00
2022-11-26T10:38:30.114Z,7.00
2022-11-26T10:40:58.432Z,7.00
2022-11-26T10:43:28.544Z,7.00
2022-11-26T10:45:58.390Z,7.00
2022-11-26T10:48:29.717Z,6.90
2022-11-26T10:51:07.207Z,6.80
2022-11-26T10:53:55.555Z,6.90
2022-11-26T10:56:37.124Z,6.90
2022-11-26T10:59:20.848Z,6.80
2022-11-26T11:01:51.700Z,6.80
2022-11-26T11:04:31.625Z,6.90
2022-11-26T11:07:00.283Z,6.90
2022-11-26T11:09:35.941Z,6.90
2022-11-26T11:12:25.127Z,7.00
2022-11-26T11:14:55.069Z,6.90
2022-11-26T11:17:33.110Z,6.90
2022-11-26T11:20:26.742Z,7.00
2022-11-26T11:23:31.108Z,7.00
2022-11-26T11:26:16.778Z,7.10
2022-11-26T11:28:51.021Z,7.00
2022-11-26T11:31:23.549Z,7.00
2022-11-26T11:34:12.067Z,7.10
2022-11-26T11:36:40.966Z,7.10
2022-11-26T11:39:29.823Z,7.00
2022-11-26T11:42:01.467Z,7.10
2022-11-26T11:44:43.788Z,7.10
2022-11-26T11:47:35.765Z,7.20
2022-11-26T11:50:22.639Z,7.20
2022-11-26T11:53:24.125Z,7.20
2022-11-26T11:56:17.025Z,7.20
2022-11-26T11:59:10.553Z,7.20
2022-11-26T12:02:03.652Z,7.20
2022-11-26T12:05:06.965Z,7.10
2022-11-26T12:07:43.306Z,7.20
2022-11-26T12:10:19.152Z,7.30
2022-11-26T12:12:52.436Z,7.20
2022-11-26T12:15:29.426Z,7.20
2022-11-26T12:18:09.824Z,7.30
2022-11-26T12:20:45.273Z,7.40
2022-11-26T12:23:28.412Z,7.40
2022-11-26T12:26:07.054Z,7.40
2022-11-26T12:28:44.740Z,7.30
2022-11-26T12:31:24.619Z,7.30
2022-11-26T12:34:06.989Z,7.30
2022-11-26T12:36:49.209Z,7.30
2022-11-26T12:39:30.457Z,7.30
2022-11-26T12:42:05.417Z,7.30
2022-11-26T12:44:39.439Z,7.20
2022-11-26T12:47:21.545Z,7.30
2022-11-26T12:50:12.872Z,7.30
2022-11-26T12:52:51.679Z,7.30
2022-11-26T12:55:26.281Z,7.30
2022-11-26T12:58:02.182Z,7.40
2022-11-26T13:00:36.605Z,7.40
2022-11-26T13:03:08.072Z,7.40
2022-11-26T13:05:51.599Z,7.30
2022-11-26T13:08:44.246Z,7.30
2022-11-26T13:11:29.742Z,7.40
2022-11-26T13:14:09.599Z,7.40
2022-11-26T13:16:43.264Z,7.50
2022-11-26T13:19:21.555Z,7.50
2022-11-26T13:22:33.256Z,7.40
2022-11-26T13:25:38.783Z,7.40
2022-11-26T13:28:28.359Z,7.40
2022-11-26T13:31:21.270Z,7.40
2022-11-26T13:34:23.464Z,7.40
2022-11-26T13:37:25.272Z,7.40
2022-11-26T13:40:44.779Z,7.40
2022-11-26T13:44:07.499Z,7.50
2022-11-26T13:46:40.432Z,7.40
2022-11-26T13:49:16.148Z,7.50
2022-11-26T13:51:49.709Z,7.50
2022-11-26T13:54:28.291Z,7.60
2022-11-26T13:57:06.472Z,7.50
2022-11-26T13:59:36.751Z,7.60
2022-11-26T14:02:44.426Z,7.60
2022-11-26T14:05:16.733Z,7.60
2022-11-26T14:07:47.274Z,7.60
2022-11-26T14:10:44.341Z,7.70
2022-11-26T14:13:16.243Z,7.60
2022-11-26T14:16:03.723Z,7.70
2022-11-26T14:19:01.192Z,7.70
2022-11-26T14:21:31.588Z,7.60
2022-11-26T14:24:03.293Z,7.60
2022-11-26T14:26:37.344Z,7.60
2022-11-26T14:29:17.434Z,7.60
2022-11-26T14:31:53.065Z,7.60
2022-11-26T14:34:30.435Z,7.70
2022-11-26T14:37:01.419Z,7.60
2022-11-26T14:39:31.797Z,7.60
2022-11-26T14:42:06.110Z,7.60
2022-11-26T14:44:36.797Z,7.60
2022-11-26T14:47:17.318Z,7.70
2022-11-26T14:49:50.855Z,7.70
2022-11-26T14:52:27.224Z,7.70
2022-11-26T14:54:59.903Z,7.70
2022-11-26T14:57:41.728Z,7.60
2022-11-26T15:00:25.069Z,7.50
2022-11-26T15:02:54.316Z,7.40
2022-11-26T15:05:25.936Z,7.40
2022-11-26T15:08:03.769Z,7.50
2022-11-26T15:10:35.735Z,7.40
2022-11-26T15:13:13.534Z,7.40
2022-11-26T15:15:53.807Z,7.40
2022-11-26T15:18:29.453Z,7.40
2022-11-26T15:21:00.118Z,7.40
2022-11-26T15:23:36.690Z,7.40
2022-11-26T15:26:06.760Z,7.40
2022-11-26T15:28:40.961Z,7.40
2022-11-26T15:31:11.974Z,7.40
2022-11-26T15:33:41.798Z,7.50
2022-11-26T15:36:17.423Z,7.50
2022-11-26T15:39:06.437Z,7.50
2022-11-26T15:41:42.488Z,7.50
2022-11-26T15:44:23.320Z,7.50
2022-11-26T15:46:56.555Z,7.50
2022-11-26T15:49:29.919Z,7.50
2022-11-26T15:52:03.499Z,7.40
2022-11-26T15:54:56.804Z,7.50
2022-11-26T15:57:30.804Z,7.40
2022-11-26T16:00:05.772Z,7.50
2022-11-26T16:02:35.791Z,7.60
2022-11-26T16:05:05.691Z,7.60
2022-11-26T16:07:35.020Z,7.70
2022-11-26T16:10:26.682Z,7.70
2022-11-26T16:13:20.044Z,7.80
2022-11-26T16:15:55.345Z,7.70
2022-11-26T16:18:34.682Z,7.70
2022-11-26T16:21:07.900Z,7.80
2022-11-26T16:23:36.360Z,7.80
2022-11-26T16:26:16.002Z,7.80
2022-11-26T16:28:45.829Z,7.90
2022-11-26T16:31:15.155Z,7.80
2022-11-26T16:33:45.420Z,7.90
2022-11-26T16:36:21.679Z,7.80
2022-11-26T16:38:51.144Z,7.80
2022-11-26T16:41:22.693Z,7.90
2022-11-26T16:43:51.570Z,7.90
2022-11-26T16:46:24.018Z,7.80
2022-11-26T16:48:53.987Z,7.90
2022-11-26T16:51:23.612Z,7.90
2022-11-26T16:53:52.032Z,7.90
2022-11-26T16:56:25.172Z,7.90
2022-11-26T16:58:54.178Z,7.90
2022-11-26T17:01:22.567Z,7.80
2022-11-26T17:03:50.991Z,7.90
2022-11-26T17:06:26.988Z,7.90
2022-11-26T17:08:57.709Z,7.90
2022-11-26T17:11:26.240Z,8.00
2022-11-26T17:13:55.231Z,7.90
2022-11-26T17:16:26.000Z,7.90
2022-11-26T17:18:54.446Z,7.80
2022-11-26T17:21:24.072Z,7.80
2022-11-26T17:23:52.319Z,7.80
2022-11-26T17:26:24.238Z,7.80
2022-11-26T17:28:52.760Z,7.80
2022-11-26T17:31:21.176Z,7.90
2022-11-26T17:33:50.594Z,7.90
2022-11-26T17:36:22.022Z,7.90
2022-11-26T17:38:52.001Z,7.90
2022-11-26T17:41:20.665Z,7.90
2022-11-26T17:43:49.144Z,7.90
2022-11-26T17:46:22.772Z,7.90
2022-11-26T17:48:56.885Z,8.00
2022-11-26T17:51:27.891Z,7.90
2022-11-26T17:53:57.492Z,7.90
2022-11-26T17:56:26.818Z,7.90
2022-11-26T17:58:55.905Z,7.90
2022-11-26T18:01:24.260Z,7.90
2022-11-26T18:03:52.997Z,7.90
2022-11-26T18:06:35.400Z,7.90
2022-11-26T18:09:05.376Z,7.90
2022-11-26T18:11:47.114Z,7.90
2022-11-26T18:14:15.368Z,7.90
2022-11-26T18:16:44.397Z,8.00
2022-11-26T18:19:15.595Z,7.90
2022-11-26T18:21:44.734Z,8.00
2022-11-26T18:24:15.134Z,7.90
2022-11-26T18:26:44.450Z,8.00
2022-11-26T18:29:13.235Z,7.90
2022-11-26T18:31:41.500Z,7.90
2022-11-26T18:34:11.116Z,7.90
2022-11-26T18:36:39.322Z,8.00
2022-11-26T18:39:08.022Z,8.00
2022-11-26T18:41:37.646Z,8.00
2022-11-26T18:44:05.888Z,8.00
2022-11-26T18:46:34.384Z,8.00
2022-11-26T18:49:03.228Z,8.00
2022-11-26T18:51:31.430Z,8.10
2022-11-26T18:53:59.653Z,8.00
2022-11-26T18:56:28.045Z,8.00
2022-11-26T18:58:57.697Z,8.00
2022-11-26T19:01:28.359Z,8.00
2022-11-26T19:03:58.743Z,8.00
2022-11-26T19:06:29.736Z,8.10
2022-11-26T19:09:00.277Z,8.10
2022-11-26T19:11:29.529Z,8.10
2022-11-26T19:14:00.128Z,8.10
2022-11-26T19:16:29.042Z,8.20
2022-11-26T19:18:57.390Z,8.20
2022-11-26T19:21:28.776Z,8.20
2022-11-26T19:24:00.605Z,8.20
2022-11-26T19:26:29.775Z,8.20
2022-11-26T19:29:04.827Z,8.20
2022-11-26T19:31:35.888Z,8.10
2022-11-26T19:34:07.508Z,8.20
2022-11-26T19:36:37.280Z,8.20
2022-11-26T19:39:07.806Z,8.30
2022-11-26T19:41:36.171Z,8.20
2022-11-26T19:44:06.887Z,8.20
2022-11-26T19:46:40.453Z,8.20
2022-11-26T19:49:12.827Z,8.20
2022-11-26T19:51:41.789Z,8.10
2022-11-26T19:54:10.559Z,8.10
2022-11-26T19:56:39.280Z,8.00
2022-11-26T19:59:08.924Z,8.00
2022-11-26T20:01:37.247Z,8.00
2022-11-26T20:04:08.164Z,8.10
2022-11-26T20:06:37.879Z,8.10
2022-11-26T20:09:08.745Z,8.10
2022-11-26T20:11:39.939Z,8.10
2022-11-26T20:14:10.692Z,8.10
2022-11-26T20:16:41.374Z,8.10
2022-11-26T20:19:11.392Z,8.10
2022-11-26T20:21:40.118Z,8.10
2022-11-26T20:24:13.114Z,8.10
2022-11-26T20:26:44.046Z,8.00
2022-11-26T20:29:16.929Z,8.10
2022-11-26T20:31:47.565Z,8.10
2022-11-26T20:34:17.154Z,8.20
2022-11-26T20:36:45.874Z,8.20
2022-11-26T20:39:15.918Z,8.10
2022-11-26T20:41:44.687Z,8.10
2022-11-26T20:44:14.910Z,8.20
2022-11-26T20:46:43.511Z,8.20
2022-11-26T20:49:12.156Z,8.10
2022-11-26T20:51:40.842Z,8.10
2022-11-26T20:54:09.045Z,8.10
2022-11-26T20:56:38.451Z,8.10
2022-11-26T20:59:09.561Z,8.00
2022-11-26T21:01:40.139Z,8.10
2022-11-26T21:04:08.728Z,8.10
2022-11-26T21:06:37.392Z,8.10
2022-11-26T21:09:07.329Z,8.10
2022-11-26T21:11:36.382Z,8.10
2022-11-26T21:14:08.481Z,8.10
2022-11-26T21:16:40.388Z,8.10
2022-11-26T21:19:11.777Z,8.10
2022-11-26T21:21:40.235Z,8.00
2022-11-26T21:24:09.578Z,8.00
2022-11-26T21:26:37.910Z,8.00
2022-11-26T21:29:06.172Z,8.00
2022-11-26T21:31:34.536Z,8.00
2022-11-26T21:34:07.527Z,8.00
2022-11-26T21:36:37.669Z,7.90
2022-11-26T21:39:07.050Z,7.90
2022-11-26T21:41:35.484Z,7.90
2022-11-26T21:44:05.236Z,7.90
2022-11-26T21:46:38.496Z,7.80
2022-11-26T21:49:09.033Z,7.80
2022-11-26T21:51:37.399Z,7.80
2022-11-26T21:54:06.293Z,7.80
2022-11-26T21:56:34.732Z,7.80
2022-11-26T21:59:03.352Z,7.80
2022-11-26T22:01:33.686Z,7.80
2022-11-26T22:04:07.100Z,7.80
2022-11-26T22:06:37.281Z,7.80
2022-11-26T22:09:07.031Z,7.70
2022-11-26T22:11:37.770Z,7.70
2022-11-26T22:14:07.558Z,7.70
2022-11-26T22:16:35.921Z,7.70
2022-11-26T22:19:04.357Z,7.60
2022-11-26T22:21:38.362Z,7.60
2022-11-26T22:24:10.794Z,7.60
2022-11-26T22:26:39.448Z,7.70
2022-11-26T22:29:08.001Z,7.80
2022-11-26T22:31:39.011Z,7.70
2022-11-26T22:34:09.498Z,7.70
2022-11-26T22:36:40.143Z,7.70
2022-11-26T22:39:13.512Z,7.80
2022-11-26T22:41:43.760Z,7.80
2022-11-26T22:44:13.268Z,7.70
2022-11-26T22:46:41.596Z,7.70
2022-11-26T22:49:13.855Z,7.70
2022-11-26T22:51:43.678Z,7.70
2022-11-26T22:54:15.456Z,7.70
2022-11-26T22:56:43.813Z,7.70
2022-11-26T22:59:14.663Z,7.60
2022-11-26T23:01:43.165Z,7.80
2022-11-26T23:04:13.049Z,7.80
2022-11-26T23:06:43.460Z,7.90
2022-11-26T23:09:14.440Z,7.90
2022-11-26T23:11:44.126Z,8.00
2022-11-26T23:14:13.725Z,8.00
2022-11-26T23:16:44.854Z,8.00
2022-11-26T23:19:15.898Z,8.20
2022-11-26T23:21:46.893Z,8.10
2022-11-26T23:24:16.811Z,8.20
2022-11-26T23:26:46.241Z,8.10
2022-11-26T23:29:15.322Z,8.10
2022-11-26T23:31:45.404Z,8.10
2022-11-26T23:34:14.773Z,8.10
2022-11-26T23:36:44.967Z,8.00
2022-11-26T23:39:14.471Z,8.10
2022-11-26T23:41:43.597Z,8.10
2022-11-26T23:44:12.148Z,8.10
2022-11-26T23:46:40.720Z,8.10
2022-11-26T23:49:09.181Z,8.10
2022-11-26T23:51:37.520Z,8.10
2022-11-26T23:54:07.366Z,8.00
2022-11-26T23:56:36.518Z,8.00
2022-11-26T23:59:08.418Z,8.00
